sensor_id;sensor_type;location;lat;lon;timestamp;P1;durP1;ratioP1;P2;durP2;ratioP2
3647;SDS011;1840;48.892;15.312;2022-09-09T00:01:51;10.23;;;4.10;;
3647;SDS011;1840;48.892;15.312;2022-09-09T00:04:28;5.80;;;3.93;;
3647;SDS011;1840;48.892;15.312;2022-09-09T00:07:03;5.60;;;3.97;;
3647;SDS011;1840;48.892;15.312;2022-09-09T00:09:36;6.83;;;3.83;;
3647;SDS011;1840;48.892;15.312;2022-09-09T00:12:15;4.13;;;3.13;;
3647;SDS011;1840;48.892;15.312;2022-09-09T00:14:50;3.93;;;2.90;;
3647;SDS011;1840;48.892;15.312;2022-09-09T00:17:30;5.37;;;3.43;;
3647;SDS011;1840;48.892;15.312;2022-09-09T00:20:03;11.70;;;4.20;;
3647;SDS011;1840;48.892;15.312;2022-09-09T00:22:40;8.50;;;3.93;;
3647;SDS011;1840;48.892;15.312;2022-09-09T00:25:14;8.00;;;4.40;;
3647;SDS011;1840;48.892;15.312;2022-09-09T00:27:48;12.03;;;5.20;;
3647;SDS011;1840;48.892;15.312;2022-09-09T00:30:18;5.70;;;3.90;;
3647;SDS011;1840;48.892;15.312;2022-09-09T00:32:50;6.40;;;4.00;;
3647;SDS011;1840;48.892;15.312;2022-09-09T00:35:25;7.93;;;4.40;;
3647;SDS011;1840;48.892;15.312;2022-09-09T00:37:58;5.20;;;3.90;;
3647;SDS011;1840;48.892;15.312;2022-09-09T00:40:31;9.83;;;4.00;;
3647;SDS011;1840;48.892;15.312;2022-09-09T00:43:09;5.33;;;4.00;;
3647;SDS011;1840;48.892;15.312;2022-09-09T00:48:57;8.10;;;4.00;;
3647;SDS011;1840;48.892;15.312;2022-09-09T00:51:34;11.43;;;3.33;;
3647;SDS011;1840;48.892;15.312;2022-09-09T00:54:16;7.67;;;3.53;;
3647;SDS011;1840;48.892;15.312;2022-09-09T00:56:57;5.57;;;3.57;;
3647;SDS011;1840;48.892;15.312;2022-09-09T00:59:42;5.73;;;3.27;;
3647;SDS011;1840;48.892;15.312;2022-09-09T01:02:17;8.67;;;4.00;;
3647;SDS011;1840;48.892;15.312;2022-09-09T01:04:56;9.77;;;4.50;;
3647;SDS011;1840;48.892;15.312;2022-09-09T01:07:32;11.73;;;4.40;;
3647;SDS011;1840;48.892;15.312;2022-09-09T01:10:00;6.13;;;3.60;;
3647;SDS011;1840;48.892;15.312;2022-09-09T01:12:37;7.20;;;3.33;;
3647;SDS011;1840;48.892;15.312;2022-09-09T01:15:08;7.30;;;4.40;;
3647;SDS011;1840;48.892;15.312;2022-09-09T01:17:44;6.23;;;4.40;;
3647;SDS011;1840;48.892;15.312;2022-09-09T01:20:20;13.33;;;3.60;;
3647;SDS011;1840;48.892;15.312;2022-09-09T01:22:57;5.60;;;3.90;;
3647;SDS011;1840;48.892;15.312;2022-09-09T01:28:41;15.43;;;5.37;;
3647;SDS011;1840;48.892;15.312;2022-09-09T01:31:12;5.13;;;4.17;;
3647;SDS011;1840;48.892;15.312;2022-09-09T01:33:44;6.43;;;3.63;;
3647;SDS011;1840;48.892;15.312;2022-09-09T01:36:13;12.30;;;3.80;;
3647;SDS011;1840;48.892;15.312;2022-09-09T01:38:50;18.63;;;6.80;;
3647;SDS011;1840;48.892;15.312;2022-09-09T01:41:20;8.23;;;4.80;;
3647;SDS011;1840;48.892;15.312;2022-09-09T01:43:48;10.77;;;5.47;;
3647;SDS011;1840;48.892;15.312;2022-09-09T01:46:18;8.00;;;5.23;;
3647;SDS011;1840;48.892;15.312;2022-09-09T01:48:50;7.10;;;4.80;;
3647;SDS011;1840;48.892;15.312;2022-09-09T01:51:19;6.37;;;4.37;;
3647;SDS011;1840;48.892;15.312;2022-09-09T01:53:48;39.83;;;5.40;;
3647;SDS011;1840;48.892;15.312;2022-09-09T01:56:24;8.43;;;4.90;;
3647;SDS011;1840;48.892;15.312;2022-09-09T01:59:08;6.63;;;4.50;;
3647;SDS011;1840;48.892;15.312;2022-09-09T02:01:48;4.40;;;3.37;;
3647;SDS011;1840;48.892;15.312;2022-09-09T02:04:34;9.60;;;4.57;;
3647;SDS011;1840;48.892;15.312;2022-09-09T02:07:06;5.87;;;3.40;;
3647;SDS011;1840;48.892;15.312;2022-09-09T02:09:42;4.57;;;3.53;;
3647;SDS011;1840;48.892;15.312;2022-09-09T02:12:19;4.37;;;3.53;;
3647;SDS011;1840;48.892;15.312;2022-09-09T02:14:52;12.53;;;4.07;;
3647;SDS011;1840;48.892;15.312;2022-09-09T02:17:27;5.67;;;3.47;;
3647;SDS011;1840;48.892;15.312;2022-09-09T02:19:59;5.53;;;3.90;;
3647;SDS011;1840;48.892;15.312;2022-09-09T02:22:32;8.63;;;3.30;;
3647;SDS011;1840;48.892;15.312;2022-09-09T02:25:03;7.90;;;5.23;;
3647;SDS011;1840;48.892;15.312;2022-09-09T02:27:35;8.23;;;4.40;;
3647;SDS011;1840;48.892;15.312;2022-09-09T02:30:04;9.30;;;4.60;;
3647;SDS011;1840;48.892;15.312;2022-09-09T02:32:33;9.97;;;5.50;;
3647;SDS011;1840;48.892;15.312;2022-09-09T02:35:03;8.57;;;5.83;;
3647;SDS011;1840;48.892;15.312;2022-09-09T02:37:37;17.13;;;6.40;;
3647;SDS011;1840;48.892;15.312;2022-09-09T02:40:07;13.63;;;7.10;;
3647;SDS011;1840;48.892;15.312;2022-09-09T02:42:39;7.50;;;5.47;;
3647;SDS011;1840;48.892;15.312;2022-09-09T02:45:08;10.40;;;6.33;;
3647;SDS011;1840;48.892;15.312;2022-09-09T02:47:37;9.30;;;5.30;;
3647;SDS011;1840;48.892;15.312;2022-09-09T02:50:11;8.87;;;3.50;;
3647;SDS011;1840;48.892;15.312;2022-09-09T02:52:45;6.03;;;4.23;;
3647;SDS011;1840;48.892;15.312;2022-09-09T02:55:23;5.90;;;3.77;;
3647;SDS011;1840;48.892;15.312;2022-09-09T02:58:00;5.50;;;4.47;;
3647;SDS011;1840;48.892;15.312;2022-09-09T03:00:33;4.20;;;3.50;;
3647;SDS011;1840;48.892;15.312;2022-09-09T03:03:02;5.20;;;3.07;;
3647;SDS011;1840;48.892;15.312;2022-09-09T03:05:31;9.20;;;3.40;;
3647;SDS011;1840;48.892;15.312;2022-09-09T03:07:59;8.63;;;4.50;;
3647;SDS011;1840;48.892;15.312;2022-09-09T03:10:28;5.00;;;3.63;;
3647;SDS011;1840;48.892;15.312;2022-09-09T03:12:56;4.20;;;3.60;;
3647;SDS011;1840;48.892;15.312;2022-09-09T03:15:26;16.10;;;4.73;;
3647;SDS011;1840;48.892;15.312;2022-09-09T03:17:56;6.10;;;3.40;;
3647;SDS011;1840;48.892;15.312;2022-09-09T03:20:25;5.87;;;3.83;;
3647;SDS011;1840;48.892;15.312;2022-09-09T03:22:55;5.37;;;3.80;;
3647;SDS011;1840;48.892;15.312;2022-09-09T03:25:24;10.60;;;3.20;;
3647;SDS011;1840;48.892;15.312;2022-09-09T03:27:52;5.53;;;3.20;;
3647;SDS011;1840;48.892;15.312;2022-09-09T03:30:21;6.03;;;3.63;;
3647;SDS011;1840;48.892;15.312;2022-09-09T03:32:51;8.30;;;3.30;;
3647;SDS011;1840;48.892;15.312;2022-09-09T03:35:19;6.70;;;3.60;;
3647;SDS011;1840;48.892;15.312;2022-09-09T03:37:47;3.70;;;3.00;;
3647;SDS011;1840;48.892;15.312;2022-09-09T03:40:15;3.40;;;2.83;;
3647;SDS011;1840;48.892;15.312;2022-09-09T03:42:46;4.40;;;3.60;;
3647;SDS011;1840;48.892;15.312;2022-09-09T03:45:14;4.17;;;3.20;;
3647;SDS011;1840;48.892;15.312;2022-09-09T03:47:43;5.47;;;3.80;;
3647;SDS011;1840;48.892;15.312;2022-09-09T03:50:12;7.47;;;5.10;;
3647;SDS011;1840;48.892;15.312;2022-09-09T03:52:41;6.30;;;3.30;;
3647;SDS011;1840;48.892;15.312;2022-09-09T03:55:10;7.20;;;3.50;;
3647;SDS011;1840;48.892;15.312;2022-09-09T03:57:38;11.80;;;3.70;;
3647;SDS011;1840;48.892;15.312;2022-09-09T04:00:06;22.50;;;5.10;;
3647;SDS011;1840;48.892;15.312;2022-09-09T04:02:36;158.23;;;7.17;;
3647;SDS011;1840;48.892;15.312;2022-09-09T04:05:05;8.37;;;5.57;;
3647;SDS011;1840;48.892;15.312;2022-09-09T04:07:35;7.43;;;3.90;;
3647;SDS011;1840;48.892;15.312;2022-09-09T04:10:04;10.40;;;4.43;;
3647;SDS011;1840;48.892;15.312;2022-09-09T04:12:33;40.90;;;5.03;;
3647;SDS011;1840;48.892;15.312;2022-09-09T04:15:02;4.70;;;3.17;;
3647;SDS011;1840;48.892;15.312;2022-09-09T04:17:30;24.17;;;4.50;;
3647;SDS011;1840;48.892;15.312;2022-09-09T04:19:59;32.10;;;4.10;;
3647;SDS011;1840;48.892;15.312;2022-09-09T04:22:27;4.50;;;3.30;;
3647;SDS011;1840;48.892;15.312;2022-09-09T04:24:57;76.23;;;5.43;;
3647;SDS011;1840;48.892;15.312;2022-09-09T04:27:25;11.63;;;4.20;;
3647;SDS011;1840;48.892;15.312;2022-09-09T04:29:53;10.20;;;3.93;;
3647;SDS011;1840;48.892;15.312;2022-09-09T04:32:23;25.10;;;4.20;;
3647;SDS011;1840;48.892;15.312;2022-09-09T04:34:53;7.83;;;4.00;;
3647;SDS011;1840;48.892;15.312;2022-09-09T04:37:21;13.03;;;4.20;;
3647;SDS011;1840;48.892;15.312;2022-09-09T04:39:51;4.77;;;3.57;;
3647;SDS011;1840;48.892;15.312;2022-09-09T04:42:20;10.90;;;4.73;;
3647;SDS011;1840;48.892;15.312;2022-09-09T04:44:49;18.73;;;4.73;;
3647;SDS011;1840;48.892;15.312;2022-09-09T04:47:17;12.10;;;4.73;;
3647;SDS011;1840;48.892;15.312;2022-09-09T04:49:46;4.90;;;4.17;;
3647;SDS011;1840;48.892;15.312;2022-09-09T04:52:14;48.33;;;5.67;;
3647;SDS011;1840;48.892;15.312;2022-09-09T04:54:43;11.63;;;5.10;;
3647;SDS011;1840;48.892;15.312;2022-09-09T04:57:12;4.87;;;3.57;;
3647;SDS011;1840;48.892;15.312;2022-09-09T04:59:45;27.30;;;5.33;;
3647;SDS011;1840;48.892;15.312;2022-09-09T05:02:14;11.93;;;4.60;;
3647;SDS011;1840;48.892;15.312;2022-09-09T05:04:42;11.03;;;4.67;;
3647;SDS011;1840;48.892;15.312;2022-09-09T05:07:10;11.77;;;5.30;;
3647;SDS011;1840;48.892;15.312;2022-09-09T05:09:39;16.47;;;6.53;;
3647;SDS011;1840;48.892;15.312;2022-09-09T05:12:07;13.27;;;5.67;;
3647;SDS011;1840;48.892;15.312;2022-09-09T05:14:36;20.50;;;5.43;;
3647;SDS011;1840;48.892;15.312;2022-09-09T05:17:05;31.90;;;6.47;;
3647;SDS011;1840;48.892;15.312;2022-09-09T05:19:33;29.30;;;6.17;;
3647;SDS011;1840;48.892;15.312;2022-09-09T05:22:02;6.80;;;5.40;;
3647;SDS011;1840;48.892;15.312;2022-09-09T05:24:30;14.97;;;6.53;;
3647;SDS011;1840;48.892;15.312;2022-09-09T05:26:59;15.23;;;6.23;;
3647;SDS011;1840;48.892;15.312;2022-09-09T05:29:28;7.40;;;5.00;;
3647;SDS011;1840;48.892;15.312;2022-09-09T05:31:59;27.40;;;7.00;;
3647;SDS011;1840;48.892;15.312;2022-09-09T05:34:29;31.60;;;7.87;;
3647;SDS011;1840;48.892;15.312;2022-09-09T05:36:57;7.57;;;5.90;;
3647;SDS011;1840;48.892;15.312;2022-09-09T05:39:25;12.50;;;5.03;;
3647;SDS011;1840;48.892;15.312;2022-09-09T05:41:53;9.63;;;6.57;;
3647;SDS011;1840;48.892;15.312;2022-09-09T05:44:22;8.90;;;6.57;;
3647;SDS011;1840;48.892;15.312;2022-09-09T05:46:53;8.53;;;5.93;;
3647;SDS011;1840;48.892;15.312;2022-09-09T05:49:22;7.20;;;5.63;;
3647;SDS011;1840;48.892;15.312;2022-09-09T05:51:51;7.77;;;5.07;;
3647;SDS011;1840;48.892;15.312;2022-09-09T05:54:20;5.33;;;4.40;;
3647;SDS011;1840;48.892;15.312;2022-09-09T05:56:48;6.10;;;4.80;;
3647;SDS011;1840;48.892;15.312;2022-09-09T05:59:18;8.50;;;5.30;;
3647;SDS011;1840;48.892;15.312;2022-09-09T06:01:46;7.47;;;4.93;;
3647;SDS011;1840;48.892;15.312;2022-09-09T06:04:15;8.13;;;5.53;;
3647;SDS011;1840;48.892;15.312;2022-09-09T06:06:43;10.40;;;5.10;;
3647;SDS011;1840;48.892;15.312;2022-09-09T06:09:12;8.07;;;5.70;;
3647;SDS011;1840;48.892;15.312;2022-09-09T06:11:41;7.93;;;5.00;;
3647;SDS011;1840;48.892;15.312;2022-09-09T06:14:10;8.40;;;4.90;;
3647;SDS011;1840;48.892;15.312;2022-09-09T06:16:38;7.33;;;4.60;;
3647;SDS011;1840;48.892;15.312;2022-09-09T06:19:10;11.93;;;5.00;;
3647;SDS011;1840;48.892;15.312;2022-09-09T06:21:39;5.20;;;4.10;;
3647;SDS011;1840;48.892;15.312;2022-09-09T06:24:08;8.37;;;5.13;;
3647;SDS011;1840;48.892;15.312;2022-09-09T06:26:38;5.93;;;4.27;;
3647;SDS011;1840;48.892;15.312;2022-09-09T06:29:08;12.23;;;4.77;;
3647;SDS011;1840;48.892;15.312;2022-09-09T06:31:36;7.63;;;3.80;;
3647;SDS011;1840;48.892;15.312;2022-09-09T06:34:05;5.07;;;3.80;;
3647;SDS011;1840;48.892;15.312;2022-09-09T06:36:35;4.80;;;3.57;;
3647;SDS011;1840;48.892;15.312;2022-09-09T06:39:05;7.10;;;4.10;;
3647;SDS011;1840;48.892;15.312;2022-09-09T06:41:41;5.13;;;3.80;;
3647;SDS011;1840;48.892;15.312;2022-09-09T06:44:09;10.87;;;5.50;;
3647;SDS011;1840;48.892;15.312;2022-09-09T06:46:38;6.50;;;4.03;;
3647;SDS011;1840;48.892;15.312;2022-09-09T06:49:07;6.40;;;4.20;;
3647;SDS011;1840;48.892;15.312;2022-09-09T06:51:36;6.80;;;4.07;;
3647;SDS011;1840;48.892;15.312;2022-09-09T06:54:09;8.10;;;3.93;;
3647;SDS011;1840;48.892;15.312;2022-09-09T06:56:43;4.40;;;3.20;;
3647;SDS011;1840;48.892;15.312;2022-09-09T06:59:12;6.47;;;2.90;;
3647;SDS011;1840;48.892;15.312;2022-09-09T07:01:41;12.53;;;3.30;;
3647;SDS011;1840;48.892;15.312;2022-09-09T07:04:11;6.53;;;2.93;;
3647;SDS011;1840;48.892;15.312;2022-09-09T07:06:40;5.53;;;2.90;;
3647;SDS011;1840;48.892;15.312;2022-09-09T07:09:09;4.50;;;3.20;;
3647;SDS011;1840;48.892;15.312;2022-09-09T07:11:40;7.30;;;3.37;;
3647;SDS011;1840;48.892;15.312;2022-09-09T07:14:10;4.67;;;3.47;;
3647;SDS011;1840;48.892;15.312;2022-09-09T07:16:40;3.37;;;2.33;;
3647;SDS011;1840;48.892;15.312;2022-09-09T07:19:08;4.20;;;2.40;;
3647;SDS011;1840;48.892;15.312;2022-09-09T07:21:37;4.40;;;3.03;;
3647;SDS011;1840;48.892;15.312;2022-09-09T07:24:06;5.53;;;3.03;;
3647;SDS011;1840;48.892;15.312;2022-09-09T07:26:36;4.80;;;3.27;;
3647;SDS011;1840;48.892;15.312;2022-09-09T07:29:06;9.00;;;3.40;;
3647;SDS011;1840;48.892;15.312;2022-09-09T07:31:38;4.07;;;3.10;;
3647;SDS011;1840;48.892;15.312;2022-09-09T07:34:07;6.00;;;2.90;;
3647;SDS011;1840;48.892;15.312;2022-09-09T07:36:36;5.73;;;2.73;;
3647;SDS011;1840;48.892;15.312;2022-09-09T07:39:06;5.40;;;2.90;;
3647;SDS011;1840;48.892;15.312;2022-09-09T07:41:37;7.97;;;3.10;;
3647;SDS011;1840;48.892;15.312;2022-09-09T07:44:07;5.67;;;3.03;;
3647;SDS011;1840;48.892;15.312;2022-09-09T07:46:38;4.13;;;2.60;;
3647;SDS011;1840;48.892;15.312;2022-09-09T07:49:07;5.23;;;2.30;;
3647;SDS011;1840;48.892;15.312;2022-09-09T07:51:37;6.90;;;2.90;;
3647;SDS011;1840;48.892;15.312;2022-09-09T07:54:07;6.73;;;2.67;;
3647;SDS011;1840;48.892;15.312;2022-09-09T07:56:37;8.37;;;3.00;;
3647;SDS011;1840;48.892;15.312;2022-09-09T07:59:07;3.57;;;2.03;;
3647;SDS011;1840;48.892;15.312;2022-09-09T08:01:37;5.00;;;2.47;;
3647;SDS011;1840;48.892;15.312;2022-09-09T08:04:08;6.80;;;2.30;;
3647;SDS011;1840;48.892;15.312;2022-09-09T08:06:42;9.57;;;2.50;;
3647;SDS011;1840;48.892;15.312;2022-09-09T08:09:12;7.90;;;2.00;;
3647;SDS011;1840;48.892;15.312;2022-09-09T08:11:41;3.70;;;1.80;;
3647;SDS011;1840;48.892;15.312;2022-09-09T08:14:10;3.97;;;1.70;;
3647;SDS011;1840;48.892;15.312;2022-09-09T08:16:41;3.37;;;1.97;;
3647;SDS011;1840;48.892;15.312;2022-09-09T08:19:11;7.73;;;1.60;;
3647;SDS011;1840;48.892;15.312;2022-09-09T08:21:51;5.47;;;2.27;;
3647;SDS011;1840;48.892;15.312;2022-09-09T08:24:20;6.40;;;1.90;;
3647;SDS011;1840;48.892;15.312;2022-09-09T08:26:49;5.40;;;1.60;;
3647;SDS011;1840;48.892;15.312;2022-09-09T08:29:17;8.53;;;1.67;;
3647;SDS011;1840;48.892;15.312;2022-09-09T08:31:48;4.50;;;1.40;;
3647;SDS011;1840;48.892;15.312;2022-09-09T08:34:17;3.37;;;1.50;;
3647;SDS011;1840;48.892;15.312;2022-09-09T08:36:46;4.83;;;1.67;;
3647;SDS011;1840;48.892;15.312;2022-09-09T08:39:16;3.47;;;1.33;;
3647;SDS011;1840;48.892;15.312;2022-09-09T08:42:05;4.07;;;1.40;;
3647;SDS011;1840;48.892;15.312;2022-09-09T08:48:00;4.83;;;1.30;;
3647;SDS011;1840;48.892;15.312;2022-09-09T08:50:37;3.20;;;1.80;;
3647;SDS011;1840;48.892;15.312;2022-09-09T08:53:09;8.17;;;1.93;;
3647;SDS011;1840;48.892;15.312;2022-09-09T08:55:43;5.40;;;2.00;;
3647;SDS011;1840;48.892;15.312;2022-09-09T08:58:15;4.10;;;2.20;;
3647;SDS011;1840;48.892;15.312;2022-09-09T09:00:49;4.80;;;1.70;;
3647;SDS011;1840;48.892;15.312;2022-09-09T09:03:30;3.93;;;1.73;;
3647;SDS011;1840;48.892;15.312;2022-09-09T09:06:11;2.80;;;1.30;;
3647;SDS011;1840;48.892;15.312;2022-09-09T09:08:51;3.13;;;1.43;;
3647;SDS011;1840;48.892;15.312;2022-09-09T09:11:27;4.37;;;1.70;;
3647;SDS011;1840;48.892;15.312;2022-09-09T09:14:03;4.97;;;1.37;;
3647;SDS011;1840;48.892;15.312;2022-09-09T09:16:39;6.87;;;1.80;;
3647;SDS011;1840;48.892;15.312;2022-09-09T09:19:18;3.70;;;1.97;;
3647;SDS011;1840;48.892;15.312;2022-09-09T09:21:50;3.10;;;1.50;;
3647;SDS011;1840;48.892;15.312;2022-09-09T09:24:24;15.73;;;2.20;;
3647;SDS011;1840;48.892;15.312;2022-09-09T09:27:06;5.53;;;1.90;;
3647;SDS011;1840;48.892;15.312;2022-09-09T09:29:39;10.83;;;2.70;;
3647;SDS011;1840;48.892;15.312;2022-09-09T09:32:32;7.00;;;3.00;;
3647;SDS011;1840;48.892;15.312;2022-09-09T09:35:04;9.40;;;3.60;;
3647;SDS011;1840;48.892;15.312;2022-09-09T09:37:39;13.10;;;5.50;;
3647;SDS011;1840;48.892;15.312;2022-09-09T09:40:30;11.47;;;4.40;;
3647;SDS011;1840;48.892;15.312;2022-09-09T09:43:00;16.93;;;6.10;;
3647;SDS011;1840;48.892;15.312;2022-09-09T09:45:34;23.47;;;7.70;;
3647;SDS011;1840;48.892;15.312;2022-09-09T09:48:30;18.53;;;7.53;;
3647;SDS011;1840;48.892;15.312;2022-09-09T09:51:02;20.30;;;8.50;;
3647;SDS011;1840;48.892;15.312;2022-09-09T09:53:34;20.23;;;8.10;;
3647;SDS011;1840;48.892;15.312;2022-09-09T09:56:05;17.40;;;6.97;;
3647;SDS011;1840;48.892;15.312;2022-09-09T09:58:37;14.60;;;6.13;;
3647;SDS011;1840;48.892;15.312;2022-09-09T10:01:20;14.80;;;6.00;;
3647;SDS011;1840;48.892;15.312;2022-09-09T10:03:52;15.70;;;5.03;;
3647;SDS011;1840;48.892;15.312;2022-09-09T10:09:19;11.83;;;5.17;;
3647;SDS011;1840;48.892;15.312;2022-09-09T10:11:51;11.37;;;4.70;;
3647;SDS011;1840;48.892;15.312;2022-09-09T10:14:30;7.93;;;3.47;;
3647;SDS011;1840;48.892;15.312;2022-09-09T10:17:10;9.80;;;3.90;;
3647;SDS011;1840;48.892;15.312;2022-09-09T10:19:49;7.27;;;2.60;;
3647;SDS011;1840;48.892;15.312;2022-09-09T10:22:26;5.70;;;2.07;;
3647;SDS011;1840;48.892;15.312;2022-09-09T10:25:14;3.90;;;1.57;;
3647;SDS011;1840;48.892;15.312;2022-09-09T10:27:59;3.47;;;1.57;;
3647;SDS011;1840;48.892;15.312;2022-09-09T10:30:47;2.73;;;1.20;;
3647;SDS011;1840;48.892;15.312;2022-09-09T10:33:26;3.00;;;1.30;;
3647;SDS011;1840;48.892;15.312;2022-09-09T10:36:02;2.90;;;1.30;;
3647;SDS011;1840;48.892;15.312;2022-09-09T10:38:41;4.30;;;1.20;;
3647;SDS011;1840;48.892;15.312;2022-09-09T10:41:15;3.40;;;1.50;;
3647;SDS011;1840;48.892;15.312;2022-09-09T10:43:54;5.30;;;1.50;;
3647;SDS011;1840;48.892;15.312;2022-09-09T10:46:44;6.87;;;1.37;;
3647;SDS011;1840;48.892;15.312;2022-09-09T10:49:31;4.03;;;1.13;;
3647;SDS011;1840;48.892;15.312;2022-09-09T10:52:17;4.80;;;1.30;;
3647;SDS011;1840;48.892;15.312;2022-09-09T10:54:56;3.50;;;1.20;;
3647;SDS011;1840;48.892;15.312;2022-09-09T10:57:28;3.73;;;1.70;;
3647;SDS011;1840;48.892;15.312;2022-09-09T11:00:03;2.80;;;1.10;;
3647;SDS011;1840;48.892;15.312;2022-09-09T11:02:35;4.13;;;1.20;;
3647;SDS011;1840;48.892;15.312;2022-09-09T11:05:08;2.60;;;1.20;;
3647;SDS011;1840;48.892;15.312;2022-09-09T11:07:44;2.30;;;1.00;;
3647;SDS011;1840;48.892;15.312;2022-09-09T11:10:21;4.03;;;1.40;;
3647;SDS011;1840;48.892;15.312;2022-09-09T11:12:53;3.13;;;1.30;;
3647;SDS011;1840;48.892;15.312;2022-09-09T11:15:28;3.70;;;1.40;;
3647;SDS011;1840;48.892;15.312;2022-09-09T11:18:03;5.80;;;1.50;;
3647;SDS011;1840;48.892;15.312;2022-09-09T11:20:33;4.93;;;1.30;;
3647;SDS011;1840;48.892;15.312;2022-09-09T11:23:03;4.67;;;1.30;;
3647;SDS011;1840;48.892;15.312;2022-09-09T11:25:40;3.00;;;1.30;;
3647;SDS011;1840;48.892;15.312;2022-09-09T11:28:28;3.33;;;1.20;;
3647;SDS011;1840;48.892;15.312;2022-09-09T11:31:09;3.43;;;1.30;;
3647;SDS011;1840;48.892;15.312;2022-09-09T11:33:52;4.83;;;2.70;;
3647;SDS011;1840;48.892;15.312;2022-09-09T11:36:34;3.30;;;1.40;;
3647;SDS011;1840;48.892;15.312;2022-09-09T11:39:26;4.53;;;1.43;;
3647;SDS011;1840;48.892;15.312;2022-09-09T11:42:12;5.23;;;1.63;;
3647;SDS011;1840;48.892;15.312;2022-09-09T11:44:44;7.27;;;1.80;;
3647;SDS011;1840;48.892;15.312;2022-09-09T11:47:19;3.13;;;1.07;;
3647;SDS011;1840;48.892;15.312;2022-09-09T11:49:50;5.30;;;1.43;;
3647;SDS011;1840;48.892;15.312;2022-09-09T11:52:21;3.83;;;1.40;;
3647;SDS011;1840;48.892;15.312;2022-09-09T11:54:53;3.70;;;1.20;;
3647;SDS011;1840;48.892;15.312;2022-09-09T11:57:30;4.27;;;1.40;;
3647;SDS011;1840;48.892;15.312;2022-09-09T12:00:02;10.33;;;2.17;;
3647;SDS011;1840;48.892;15.312;2022-09-09T12:02:31;3.50;;;1.37;;
3647;SDS011;1840;48.892;15.312;2022-09-09T12:05:00;5.33;;;1.47;;
3647;SDS011;1840;48.892;15.312;2022-09-09T12:07:35;3.97;;;1.30;;
3647;SDS011;1840;48.892;15.312;2022-09-09T12:10:18;4.03;;;1.30;;
3647;SDS011;1840;48.892;15.312;2022-09-09T12:12:50;6.20;;;3.17;;
3647;SDS011;1840;48.892;15.312;2022-09-09T12:15:20;5.13;;;1.80;;
3647;SDS011;1840;48.892;15.312;2022-09-09T12:17:52;4.70;;;1.70;;
3647;SDS011;1840;48.892;15.312;2022-09-09T12:20:31;3.63;;;1.47;;
3647;SDS011;1840;48.892;15.312;2022-09-09T12:23:17;4.73;;;1.80;;
3647;SDS011;1840;48.892;15.312;2022-09-09T12:25:55;5.50;;;1.60;;
3647;SDS011;1840;48.892;15.312;2022-09-09T12:31:24;4.13;;;1.70;;
3647;SDS011;1840;48.892;15.312;2022-09-09T12:34:02;3.80;;;1.40;;
3647;SDS011;1840;48.892;15.312;2022-09-09T12:36:37;4.63;;;1.90;;
3647;SDS011;1840;48.892;15.312;2022-09-09T12:39:10;4.50;;;1.60;;
3647;SDS011;1840;48.892;15.312;2022-09-09T12:41:50;5.50;;;1.80;;
3647;SDS011;1840;48.892;15.312;2022-09-09T12:44:24;3.13;;;1.50;;
3647;SDS011;1840;48.892;15.312;2022-09-09T12:46:55;5.37;;;1.60;;
3647;SDS011;1840;48.892;15.312;2022-09-09T12:49:28;3.53;;;1.60;;
3647;SDS011;1840;48.892;15.312;2022-09-09T12:52:01;5.10;;;2.10;;
3647;SDS011;1840;48.892;15.312;2022-09-09T12:54:32;3.97;;;1.87;;
3647;SDS011;1840;48.892;15.312;2022-09-09T12:57:02;11.53;;;2.43;;
3647;SDS011;1840;48.892;15.312;2022-09-09T12:59:36;6.00;;;2.53;;
3647;SDS011;1840;48.892;15.312;2022-09-09T13:02:11;5.37;;;2.50;;
3647;SDS011;1840;48.892;15.312;2022-09-09T13:04:46;7.43;;;2.17;;
3647;SDS011;1840;48.892;15.312;2022-09-09T13:07:16;4.03;;;2.17;;
3647;SDS011;1840;48.892;15.312;2022-09-09T13:09:46;4.13;;;2.23;;
3647;SDS011;1840;48.892;15.312;2022-09-09T13:12:16;4.50;;;1.93;;
3647;SDS011;1840;48.892;15.312;2022-09-09T13:14:48;6.13;;;2.10;;
3647;SDS011;1840;48.892;15.312;2022-09-09T13:17:20;5.70;;;2.00;;
3647;SDS011;1840;48.892;15.312;2022-09-09T13:19:50;4.00;;;1.90;;
3647;SDS011;1840;48.892;15.312;2022-09-09T13:22:20;5.27;;;1.70;;
3647;SDS011;1840;48.892;15.312;2022-09-09T13:25:01;6.63;;;1.67;;
3647;SDS011;1840;48.892;15.312;2022-09-09T13:27:32;7.20;;;2.10;;
3647;SDS011;1840;48.892;15.312;2022-09-09T13:33:17;4.80;;;1.50;;
3647;SDS011;1840;48.892;15.312;2022-09-09T13:35:49;3.73;;;1.80;;
3647;SDS011;1840;48.892;15.312;2022-09-09T13:38:21;3.50;;;1.60;;
3647;SDS011;1840;48.892;15.312;2022-09-09T13:40:56;2.60;;;1.40;;
3647;SDS011;1840;48.892;15.312;2022-09-09T13:43:27;3.37;;;1.50;;
3647;SDS011;1840;48.892;15.312;2022-09-09T13:46:00;4.53;;;1.37;;
3647;SDS011;1840;48.892;15.312;2022-09-09T13:48:30;4.43;;;1.50;;
3647;SDS011;1840;48.892;15.312;2022-09-09T13:51:00;3.10;;;1.30;;
3647;SDS011;1840;48.892;15.312;2022-09-09T13:53:31;4.90;;;1.70;;
3647;SDS011;1840;48.892;15.312;2022-09-09T13:55:59;3.80;;;1.13;;
3647;SDS011;1840;48.892;15.312;2022-09-09T13:58:27;5.17;;;1.50;;
3647;SDS011;1840;48.892;15.312;2022-09-09T14:00:56;3.90;;;1.83;;
3647;SDS011;1840;48.892;15.312;2022-09-09T14:03:25;2.50;;;1.30;;
3647;SDS011;1840;48.892;15.312;2022-09-09T14:05:53;4.40;;;1.40;;
3647;SDS011;1840;48.892;15.312;2022-09-09T14:08:23;4.50;;;1.57;;
3647;SDS011;1840;48.892;15.312;2022-09-09T14:10:54;2.90;;;1.40;;
3647;SDS011;1840;48.892;15.312;2022-09-09T14:13:24;4.60;;;1.40;;
3647;SDS011;1840;48.892;15.312;2022-09-09T14:15:52;3.60;;;1.50;;
3647;SDS011;1840;48.892;15.312;2022-09-09T14:18:21;2.50;;;1.13;;
3647;SDS011;1840;48.892;15.312;2022-09-09T14:20:52;3.07;;;1.27;;
3647;SDS011;1840;48.892;15.312;2022-09-09T14:23:21;5.80;;;1.37;;
3647;SDS011;1840;48.892;15.312;2022-09-09T14:25:51;3.40;;;1.37;;
3647;SDS011;1840;48.892;15.312;2022-09-09T14:28:19;4.00;;;1.27;;
3647;SDS011;1840;48.892;15.312;2022-09-09T14:31:08;8.73;;;4.50;;
3647;SDS011;1840;48.892;15.312;2022-09-09T14:33:37;2.63;;;1.17;;
3647;SDS011;1840;48.892;15.312;2022-09-09T14:36:08;3.63;;;1.33;;
3647;SDS011;1840;48.892;15.312;2022-09-09T14:38:37;2.93;;;1.27;;
3647;SDS011;1840;48.892;15.312;2022-09-09T14:41:06;7.60;;;2.10;;
3647;SDS011;1840;48.892;15.312;2022-09-09T14:43:37;3.57;;;1.30;;
3647;SDS011;1840;48.892;15.312;2022-09-09T14:46:06;7.70;;;1.77;;
3647;SDS011;1840;48.892;15.312;2022-09-09T14:48:35;15.00;;;4.30;;
3647;SDS011;1840;48.892;15.312;2022-09-09T14:51:06;4.60;;;2.20;;
3647;SDS011;1840;48.892;15.312;2022-09-09T14:53:36;13.90;;;2.20;;
3647;SDS011;1840;48.892;15.312;2022-09-09T14:56:05;5.60;;;1.53;;
3647;SDS011;1840;48.892;15.312;2022-09-09T14:58:35;4.40;;;1.50;;
3647;SDS011;1840;48.892;15.312;2022-09-09T15:01:05;4.47;;;1.60;;
3647;SDS011;1840;48.892;15.312;2022-09-09T15:03:34;15.83;;;3.30;;
3647;SDS011;1840;48.892;15.312;2022-09-09T15:06:08;9.30;;;2.37;;
3647;SDS011;1840;48.892;15.312;2022-09-09T15:08:39;14.23;;;2.30;;
3647;SDS011;1840;48.892;15.312;2022-09-09T15:11:10;15.30;;;3.13;;
3647;SDS011;1840;48.892;15.312;2022-09-09T15:13:40;67.10;;;7.97;;
3647;SDS011;1840;48.892;15.312;2022-09-09T15:16:10;11.87;;;2.23;;
3647;SDS011;1840;48.892;15.312;2022-09-09T15:18:40;3.43;;;1.07;;
3647;SDS011;1840;48.892;15.312;2022-09-09T15:21:12;4.30;;;1.40;;
3647;SDS011;1840;48.892;15.312;2022-09-09T15:23:42;6.50;;;1.27;;
3647;SDS011;1840;48.892;15.312;2022-09-09T15:26:11;8.87;;;2.50;;
3647;SDS011;1840;48.892;15.312;2022-09-09T15:28:40;3.53;;;1.50;;
3647;SDS011;1840;48.892;15.312;2022-09-09T15:31:11;9.07;;;2.33;;
3647;SDS011;1840;48.892;15.312;2022-09-09T15:33:46;5.10;;;2.07;;
3647;SDS011;1840;48.892;15.312;2022-09-09T15:36:18;10.43;;;2.10;;
3647;SDS011;1840;48.892;15.312;2022-09-09T15:38:48;4.20;;;1.90;;
3647;SDS011;1840;48.892;15.312;2022-09-09T15:41:17;6.03;;;1.60;;
3647;SDS011;1840;48.892;15.312;2022-09-09T15:43:47;34.00;;;5.10;;
3647;SDS011;1840;48.892;15.312;2022-09-09T15:46:24;66.23;;;9.63;;
3647;SDS011;1840;48.892;15.312;2022-09-09T15:48:54;38.80;;;4.87;;